Sti Hammersmith — V7DP3 — position and weather

sailwx.info

Track history (hours):
 
Tides and Currents Weather Stations Pressure Air Temp Water Temp Dewpoint Dewpoint Depression Visibility Wind Speed Wind Dir Waves Ship Positions

Sti Hammersmith

Last reported at 2017-Nov-17 14:48 UTC. Time now 2017-Nov-21 17:06 UTC.
Position N 36°02' E 013°52'.

Length 184 m; draft 9 m.

Type: Tanker. MMSI: 538005410.

Date/timePositionNaut miles runAvg speedWind from/ knotsBaromVisibWave heightAir tempDewpointWater temp
2017-Nov-17 14:48N 36°02' E 013°52'411.9
2017-Nov-17 14:31N 35°60' E 013°56'612.0
2017-Nov-17 14:00N 35°57' E 014°03'612.0
2017-Nov-17 13:30N 35°53' E 014°09'611.7
2017-Nov-17 13:00N 35°50' E 014°15'611.9
2017-Nov-17 12:30N 35°47' E 014°21'612.4
2017-Nov-17 12:00N 35°44' E 014°28'6 9.7
2017-Nov-17 11:22N 35°47' E 014°34'2 0.1
2017-Nov-16 07:43N 35°49' E 014°33'0 2.1
2017-Nov-16 07:30N 35°49' E 014°33'2 3.8
2017-Nov-16 07:00N 35°48' E 014°35'0 0.2
2017-Nov-16 06:30N 35°48' E 014°35'0 0.3
2017-Nov-16 05:59N 35°48' E 014°35'5 4.6
2017-Nov-16 04:59N 35°44' E 014°31'510.2
2017-Nov-16 04:31N 35°44' E 014°25'611.4
2017-Nov-16 04:00N 35°46' E 014°19'612.8
2017-Nov-16 03:30N 35°50' E 014°12'712.9
2017-Nov-16 03:00N 35°54' E 014°05'613.1
2017-Nov-16 02:30N 35°57' E 013°59'713.1
2017-Nov-16 02:00N 36°01' E 013°52'  
2017-Nov-12 21:30N 35°59' W 005°12'816.9
2017-Nov-12 21:00N 35°58' W 005°22'23212.7
2017-Nov-12 02:47N 37°26' W 009°50'1313.9
2017-Nov-12 01:53N 37°38' W 009°53'514.2
2017-Nov-12 01:30N 37°43' W 009°55'714.0
2017-Nov-12 01:00N 37°50' W 009°57'714.0
2017-Nov-12 00:30N 37°57' W 009°59'713.9
2017-Nov-12 00:01N 38°03' W 010°01'714.3
2017-Nov-11 23:30N 38°10' W 010°03'814.2
2017-Nov-11 22:55N 38°18' W 010°05'1113.9
2017-Nov-11 22:07N 38°29' W 010°08'213.7
2017-Nov-11 21:56N 38°32' W 010°09'713.8
2017-Nov-11 21:28N 38°38' W 010°11'613.6
2017-Nov-11 21:00N 38°44' W 010°12'713.4
2017-Nov-11 20:26N 38°52' W 010°12'613.6
2017-Nov-11 20:00N 38°58' W 010°12'713.7
2017-Nov-11 19:30N 39°05' W 010°12'913.5
2017-Nov-11 18:49N 39°14' W 010°12'50913.6
2017-Nov-10 05:28N 47°24' W 007°02'1313.6
2017-Nov-10 04:32N 47°35' W 006°53'313.0
2017-Nov-10 04:19N 47°37' W 006°51'913.4
2017-Nov-10 03:39N 47°45' W 006°46'2113.9
2017-Nov-10 02:10N 48°04' W 006°34'4714.4
2017-Nov-09 22:53N 48°45' W 005°56'2611.9
2017-Nov-09 20:42N 49°03' W 005°27'8812.2
2017-Nov-09 13:31N 49°48' W 003°31'013.4
2017-Nov-09 13:30N 49°48' W 003°31'712.5
2017-Nov-09 12:58N 49°51' W 003°22'612.0
2017-Nov-09 12:26N 49°54' W 003°13'611.5
2017-Nov-09 11:55N 49°57' W 003°05'511.1
2017-Nov-09 11:30N 49°60' W 002°59'510.7
2017-Nov-09 11:00N 50°01' W 002°51'510.4
2017-Nov-09 10:30N 50°02' W 002°43'510.4
2017-Nov-09 10:00N 50°04' W 002°35'2711.6
2017-Nov-09 07:39N 50°11' W 001°54'213.6
2017-Nov-09 07:29N 50°12' W 001°51'714.0
2017-Nov-09 07:00N 50°13' W 001°41'714.7
2017-Nov-09 06:30N 50°15' W 001°30'4315.1
2017-Nov-09 03:41N 50°27' W 000°25'213.9
2017-Nov-09 03:30N 50°27' W 000°22'713.6
2017-Nov-09 03:00N 50°29' W 000°11'613.0
2017-Nov-09 02:30N 50°31' W 000°01'612.5
2017-Nov-09 02:00N 50°32' E 000°08'611.9
2017-Nov-09 01:30N 50°34' E 000°17'611.5
2017-Nov-09 01:01N 50°35' E 000°26'611.2
2017-Nov-09 00:31N 50°37' E 000°34'611.2
2017-Nov-09 00:00N 50°39' E 000°42'611.8
2017-Nov-08 23:30N 50°44' E 000°49'612.6
2017-Nov-08 23:00N 50°47' E 000°57'713.2
2017-Nov-08 22:31N 50°52' E 001°04'714.5
2017-Nov-08 22:00N 50°57' E 001°13'815.5
2017-Nov-08 21:31N 51°01' E 001°22'815.5
2017-Nov-08 21:00N 51°06' E 001°32'815.2
2017-Nov-08 20:31N 51°11' E 001°42'714.1
2017-Nov-08 20:00N 51°17' E 001°48'713.2
2017-Nov-08 19:31N 51°23' E 001°52'612.2
2017-Nov-08 19:01N 51°28' E 001°57'611.9
2017-Nov-08 18:30N 51°32' E 002°04'611.7
2017-Nov-08 18:00N 51°36' E 002°11'6311.1
2017-Nov-08 12:19N 52°03' E 003°43'412.7
2017-Nov-08 12:00N 52°02' E 003°49'510.2
2017-Nov-08 11:31N 52°01' E 003°57'611.9
2017-Nov-08 11:00N 51°58' E 004°05'1 2.6
2017-Nov-08 10:30N 51°57' E 004°05'0 0.0
2017-Nov-08 09:59N 51°57' E 004°05'0 0.0
2017-Nov-08 09:26N 51°57' E 004°05'0 0.0
2017-Nov-08 08:56N 51°57' E 004°05'0 0.0
2017-Nov-08 08:26N 51°57' E 004°05'0 0.0
2017-Nov-08 07:59N 51°57' E 004°05'0 0.0
2017-Nov-08 07:29N 51°57' E 004°05'0 0.0
2017-Nov-08 06:59N 51°57' E 004°05'0 0.0
2017-Nov-08 06:29N 51°57' E 004°05'0 0.0
2017-Nov-08 05:59N 51°57' E 004°05'0 0.0
2017-Nov-08 05:26N 51°57' E 004°05'0 0.0
2017-Nov-08 04:56N 51°57' E 004°05'0 0.0
2017-Nov-08 04:23N 51°57' E 004°05'0 0.0
2017-Nov-08 03:53N 51°57' E 004°05'0 0.0
2017-Nov-08 03:29N 51°57' E 004°05'0 0.0
2017-Nov-08 02:44N 51°57' E 004°05'0 0.0
2017-Nov-08 02:29N 51°57' E 004°05'0 0.0
2017-Nov-08 01:53N 51°57' E 004°05'0 0.0
2017-Nov-08 01:26N 51°57' E 004°05'0 0.0
2017-Nov-08 00:59N 51°57' E 004°05'0 0.0
2017-Nov-08 00:17N 51°57' E 004°05'0 0.0
2017-Nov-07 23:50N 51°57' E 004°05'0 0.0
2017-Nov-07 23:29N 51°57' E 004°05'0 0.0
2017-Nov-07 22:59N 51°57' E 004°05'0 0.0
2017-Nov-07 22:29N 51°57' E 004°05'0 0.0
2017-Nov-07 21:56N 51°57' E 004°05'0 0.0
2017-Nov-07 21:26N 51°57' E 004°05'0 0.0
2017-Nov-07 20:59N 51°57' E 004°05'0 0.0
2017-Nov-07 20:26N 51°57' E 004°05'0 0.0
2017-Nov-07 19:59N 51°57' E 004°05'0 0.0
2017-Nov-07 19:26N 51°57' E 004°05'0 0.0
2017-Nov-07 18:59N 51°57' E 004°05'0 0.0
2017-Nov-07 18:29N 51°57' E 004°05'0 0.0
2017-Nov-07 17:59N 51°57' E 004°05'0 0.0
2017-Nov-07 17:14N 51°57' E 004°05'0 0.0
2017-Nov-07 16:56N 51°57' E 004°05'0 0.0
2017-Nov-07 16:29N 51°57' E 004°05'0 0.0
2017-Nov-07 15:59N 51°57' E 004°05'0 0.0
2017-Nov-07 15:20N 51°57' E 004°05'0 0.0
2017-Nov-07 14:59N 51°57' E 004°05'  
Track history (hours):
 
Tides and Currents Weather Stations Pressure Air Temp Water Temp Dewpoint Dewpoint Depression Visibility Wind Speed Wind Dir Waves Ship Positions

Sti Hammersmith

Last reported at 2017-Nov-17 14:48 UTC. Time now 2017-Nov-21 17:06 UTC.
Position N 36°02' E 013°52'.

Length 184 m; draft 9 m.

Type: Tanker. MMSI: 538005410.

Date/timePositionNaut miles runAvg speedWind from/ knotsBaromVisibWave heightAir tempDewpointWater temp
2017-Nov-17 14:48N 36°02' E 013°52'411.9
2017-Nov-17 14:31N 35°60' E 013°56'612.0
2017-Nov-17 14:00N 35°57' E 014°03'612.0
2017-Nov-17 13:30N 35°53' E 014°09'611.7
2017-Nov-17 13:00N 35°50' E 014°15'611.9
2017-Nov-17 12:30N 35°47' E 014°21'612.4
2017-Nov-17 12:00N 35°44' E 014°28'6 9.7
2017-Nov-17 11:22N 35°47' E 014°34'2 0.1
2017-Nov-16 07:43N 35°49' E 014°33'0 2.1
2017-Nov-16 07:30N 35°49' E 014°33'2 3.8
2017-Nov-16 07:00N 35°48' E 014°35'0 0.2
2017-Nov-16 06:30N 35°48' E 014°35'0 0.3
2017-Nov-16 05:59N 35°48' E 014°35'5 4.6
2017-Nov-16 04:59N 35°44' E 014°31'510.2
2017-Nov-16 04:31N 35°44' E 014°25'611.4
2017-Nov-16 04:00N 35°46' E 014°19'612.8
2017-Nov-16 03:30N 35°50' E 014°12'712.9
2017-Nov-16 03:00N 35°54' E 014°05'613.1
2017-Nov-16 02:30N 35°57' E 013°59'713.1
2017-Nov-16 02:00N 36°01' E 013°52'  
2017-Nov-12 21:30N 35°59' W 005°12'816.9
2017-Nov-12 21:00N 35°58' W 005°22'23212.7
2017-Nov-12 02:47N 37°26' W 009°50'1313.9
2017-Nov-12 01:53N 37°38' W 009°53'514.2
2017-Nov-12 01:30N 37°43' W 009°55'714.0
2017-Nov-12 01:00N 37°50' W 009°57'714.0
2017-Nov-12 00:30N 37°57' W 009°59'713.9
2017-Nov-12 00:01N 38°03' W 010°01'714.3
2017-Nov-11 23:30N 38°10' W 010°03'814.2
2017-Nov-11 22:55N 38°18' W 010°05'1113.9
2017-Nov-11 22:07N 38°29' W 010°08'213.7
2017-Nov-11 21:56N 38°32' W 010°09'713.8
2017-Nov-11 21:28N 38°38' W 010°11'613.6
2017-Nov-11 21:00N 38°44' W 010°12'713.4
2017-Nov-11 20:26N 38°52' W 010°12'613.6
2017-Nov-11 20:00N 38°58' W 010°12'713.7
2017-Nov-11 19:30N 39°05' W 010°12'913.5
2017-Nov-11 18:49N 39°14' W 010°12'50913.6
2017-Nov-10 05:28N 47°24' W 007°02'1313.6
2017-Nov-10 04:32N 47°35' W 006°53'313.0
2017-Nov-10 04:19N 47°37' W 006°51'913.4
2017-Nov-10 03:39N 47°45' W 006°46'2113.9
2017-Nov-10 02:10N 48°04' W 006°34'4714.4
2017-Nov-09 22:53N 48°45' W 005°56'2611.9
2017-Nov-09 20:42N 49°03' W 005°27'8812.2
2017-Nov-09 13:31N 49°48' W 003°31'013.4
2017-Nov-09 13:30N 49°48' W 003°31'712.5
2017-Nov-09 12:58N 49°51' W 003°22'612.0
2017-Nov-09 12:26N 49°54' W 003°13'611.5
2017-Nov-09 11:55N 49°57' W 003°05'511.1
2017-Nov-09 11:30N 49°60' W 002°59'510.7
2017-Nov-09 11:00N 50°01' W 002°51'510.4
2017-Nov-09 10:30N 50°02' W 002°43'510.4
2017-Nov-09 10:00N 50°04' W 002°35'2711.6
2017-Nov-09 07:39N 50°11' W 001°54'213.6
2017-Nov-09 07:29N 50°12' W 001°51'714.0
2017-Nov-09 07:00N 50°13' W 001°41'714.7
2017-Nov-09 06:30N 50°15' W 001°30'4315.1
2017-Nov-09 03:41N 50°27' W 000°25'213.9
2017-Nov-09 03:30N 50°27' W 000°22'713.6
2017-Nov-09 03:00N 50°29' W 000°11'613.0
2017-Nov-09 02:30N 50°31' W 000°01'612.5
2017-Nov-09 02:00N 50°32' E 000°08'611.9
2017-Nov-09 01:30N 50°34' E 000°17'611.5
2017-Nov-09 01:01N 50°35' E 000°26'611.2
2017-Nov-09 00:31N 50°37' E 000°34'611.2
2017-Nov-09 00:00N 50°39' E 000°42'611.8
2017-Nov-08 23:30N 50°44' E 000°49'612.6
2017-Nov-08 23:00N 50°47' E 000°57'713.2
2017-Nov-08 22:31N 50°52' E 001°04'714.5
2017-Nov-08 22:00N 50°57' E 001°13'815.5
2017-Nov-08 21:31N 51°01' E 001°22'815.5
2017-Nov-08 21:00N 51°06' E 001°32'815.2
2017-Nov-08 20:31N 51°11' E 001°42'714.1
2017-Nov-08 20:00N 51°17' E 001°48'713.2
2017-Nov-08 19:31N 51°23' E 001°52'612.2
2017-Nov-08 19:01N 51°28' E 001°57'611.9
2017-Nov-08 18:30N 51°32' E 002°04'611.7
2017-Nov-08 18:00N 51°36' E 002°11'6311.1
2017-Nov-08 12:19N 52°03' E 003°43'412.7
2017-Nov-08 12:00N 52°02' E 003°49'510.2
2017-Nov-08 11:31N 52°01' E 003°57'611.9
2017-Nov-08 11:00N 51°58' E 004°05'1 2.6
2017-Nov-08 10:30N 51°57' E 004°05'0 0.0
2017-Nov-08 09:59N 51°57' E 004°05'0 0.0
2017-Nov-08 09:26N 51°57' E 004°05'0 0.0
2017-Nov-08 08:56N 51°57' E 004°05'0 0.0
2017-Nov-08 08:26N 51°57' E 004°05'0 0.0
2017-Nov-08 07:59N 51°57' E 004°05'0 0.0
2017-Nov-08 07:29N 51°57' E 004°05'0 0.0
2017-Nov-08 06:59N 51°57' E 004°05'0 0.0
2017-Nov-08 06:29N 51°57' E 004°05'0 0.0
2017-Nov-08 05:59N 51°57' E 004°05'0 0.0
2017-Nov-08 05:26N 51°57' E 004°05'0 0.0
2017-Nov-08 04:56N 51°57' E 004°05'0 0.0
2017-Nov-08 04:23N 51°57' E 004°05'0 0.0
2017-Nov-08 03:53N 51°57' E 004°05'0 0.0
2017-Nov-08 03:29N 51°57' E 004°05'0 0.0
2017-Nov-08 02:44N 51°57' E 004°05'0 0.0
2017-Nov-08 02:29N 51°57' E 004°05'0 0.0
2017-Nov-08 01:53N 51°57' E 004°05'0 0.0
2017-Nov-08 01:26N 51°57' E 004°05'0 0.0
2017-Nov-08 00:59N 51°57' E 004°05'0 0.0
2017-Nov-08 00:17N 51°57' E 004°05'0 0.0
2017-Nov-07 23:50N 51°57' E 004°05'0 0.0
2017-Nov-07 23:29N 51°57' E 004°05'0 0.0
2017-Nov-07 22:59N 51°57' E 004°05'0 0.0
2017-Nov-07 22:29N 51°57' E 004°05'0 0.0
2017-Nov-07 21:56N 51°57' E 004°05'0 0.0
2017-Nov-07 21:26N 51°57' E 004°05'0 0.0
2017-Nov-07 20:59N 51°57' E 004°05'0 0.0
2017-Nov-07 20:26N 51°57' E 004°05'0 0.0
2017-Nov-07 19:59N 51°57' E 004°05'0 0.0
2017-Nov-07 19:26N 51°57' E 004°05'0 0.0
2017-Nov-07 18:59N 51°57' E 004°05'0 0.0
2017-Nov-07 18:29N 51°57' E 004°05'0 0.0
2017-Nov-07 17:59N 51°57' E 004°05'0 0.0
2017-Nov-07 17:14N 51°57' E 004°05'0 0.0
2017-Nov-07 16:56N 51°57' E 004°05'0 0.0
2017-Nov-07 16:29N 51°57' E 004°05'0 0.0
2017-Nov-07 15:59N 51°57' E 004°05'0 0.0
2017-Nov-07 15:20N 51°57' E 004°05'0 0.0
2017-Nov-07 14:59N 51°57' E 004°05'  

Dump ship's entire track history